Silver Shadow — C6FN6 — position and weather

sailwx.info

Track history (hours):
 
Tides and Currents Weather Stations Pressure Air Temp Water Temp Dewpoint Dewpoint Depression Visibility Wind Speed Wind Dir Waves Ship Positions

Silver Shadow

Operator: V Ships Leisure SAM

Last reported at 2018-Feb-13 10:11 UTC. Time now 2018-Feb-18 18:33 UTC.
Position N 05°35' E 100°14'.

Length 186 m; draft 6.1 m.

Type: Passenger vessel. MMSI: 308628000.

Date/timePositionNaut miles runAvg speedWind from/ knotsBaromVisibWave heightAir tempDewpointWater temp
2018-Feb-13 10:11N 05°35' E 100°14'416.1
2018-Feb-13 09:58N 05°33' E 100°17'614.3
2018-Feb-13 09:30N 05°27' E 100°21'2 3.9
2018-Feb-13 08:55N 05°25' E 100°21'0 0.0
2018-Feb-13 08:25N 05°25' E 100°21'0 0.0
2018-Feb-13 07:49N 05°25' E 100°21'0 0.0
2018-Feb-13 04:19N 05°25' E 100°21'0 0.0
2018-Feb-13 03:49N 05°25' E 100°21'0 0.0
2018-Feb-13 03:23N 05°25' E 100°21'0 0.8
2018-Feb-13 02:59N 05°25' E 100°21'0 0.4
2018-Feb-13 02:30N 05°25' E 100°21'0 0.0
2018-Feb-13 01:56N 05°25' E 100°21'0 0.0
2018-Feb-13 01:20N 05°25' E 100°21'0 0.1
2018-Feb-13 00:56N 05°25' E 100°21'0 0.0
2018-Feb-13 00:26N 05°25' E 100°21'0 0.0
2018-Feb-12 23:56N 05°25' E 100°21'0 0.0
2018-Feb-12 23:20N 05°25' E 100°21'0 1.0
2018-Feb-12 23:00N 05°26' E 100°21'611.5
2018-Feb-12 22:30N 05°31' E 100°19'914.3
2018-Feb-12 21:54N 05°36' E 100°12'714.8
2018-Feb-12 21:26N 05°31' E 100°07'716.6
2018-Feb-12 21:00N 05°24' E 100°05'816.9
2018-Feb-12 20:30N 05°15' E 100°05'816.9
2018-Feb-12 20:00N 05°07' E 100°07'299 9.4
2018-Feb-11 12:19N 01°19' E 103°20'617.0
2018-Feb-11 11:57N 01°15' E 103°25'817.0
2018-Feb-11 11:30N 01°12' E 103°32'814.7
2018-Feb-11 10:58N 01°12' E 103°40'612.9
2018-Feb-11 10:29N 01°16' E 103°45'4 8.4
2018-Feb-11 09:59N 01°16' E 103°49'0 0.0
2018-Feb-11 09:29N 01°16' E 103°49'0 0.0
2018-Feb-11 08:59N 01°16' E 103°49'0 0.0
2018-Feb-11 08:29N 01°16' E 103°49'0 0.0
2018-Feb-11 07:59N 01°16' E 103°49'0 0.0
2018-Feb-11 07:29N 01°16' E 103°49'0 0.0
2018-Feb-11 06:59N 01°16' E 103°49'0 0.0
2018-Feb-11 06:29N 01°16' E 103°49'0 0.0
2018-Feb-11 05:59N 01°16' E 103°49'0 0.0
2018-Feb-11 05:29N 01°16' E 103°49'0 0.0
2018-Feb-11 04:53N 01°16' E 103°49'0 0.0
2018-Feb-11 04:29N 01°16' E 103°49'0 0.0
2018-Feb-11 03:59N 01°16' E 103°49'0 0.0
2018-Feb-11 03:29N 01°16' E 103°49'0 0.0
2018-Feb-11 02:59N 01°16' E 103°49'0 0.0
2018-Feb-11 02:29N 01°16' E 103°49'0 0.0
2018-Feb-11 01:59N 01°16' E 103°49'0 0.0
2018-Feb-11 01:29N 01°16' E 103°49'0 0.0
2018-Feb-11 00:59N 01°16' E 103°49'0 0.0
2018-Feb-11 00:29N 01°16' E 103°49'0 0.0
2018-Feb-10 23:59N 01°16' E 103°49'0 0.0
2018-Feb-10 23:30N 01°16' E 103°49'1 1.9
2018-Feb-10 23:00N 01°16' E 103°48'4 8.2
2018-Feb-10 22:30N 01°12' E 103°50'713.3
2018-Feb-10 22:00N 01°14' E 103°56'814.9
2018-Feb-10 21:27N 01°16' E 104°04'815.5
2018-Feb-10 20:58N 01°17' E 104°11'916.4
2018-Feb-10 20:26N 01°19' E 104°20'717.2
2018-Feb-10 20:00N 01°24' E 104°25'  
2018-Feb-06 15:41N 16°02' E 108°34'315.5
2018-Feb-06 15:29N 16°04' E 108°32'1514.7
2018-Feb-06 14:29N 16°11' E 108°18'7 6.8
2018-Feb-06 13:30N 16°07' E 108°13'0 0.0
2018-Feb-06 12:58N 16°07' E 108°13'0 0.0
2018-Feb-06 12:28N 16°07' E 108°13'0 0.0
2018-Feb-06 11:58N 16°07' E 108°13'0 0.0
2018-Feb-06 11:28N 16°07' E 108°13'0 0.0
2018-Feb-06 10:58N 16°07' E 108°13'0 0.0
2018-Feb-06 10:28N 16°07' E 108°13'0 0.0
2018-Feb-06 09:58N 16°07' E 108°13'0 0.0
2018-Feb-06 09:28N 16°07' E 108°13'0 0.0
2018-Feb-06 08:58N 16°07' E 108°13'0 0.0
2018-Feb-06 08:28N 16°07' E 108°13'0 0.0
2018-Feb-06 07:58N 16°07' E 108°13'0 0.0
2018-Feb-06 07:28N 16°07' E 108°13'0 0.0
2018-Feb-06 06:58N 16°07' E 108°13'0 0.0
2018-Feb-06 06:28N 16°07' E 108°13'0 0.0
2018-Feb-06 05:58N 16°07' E 108°13'0 0.0
2018-Feb-06 05:28N 16°07' E 108°13'0 0.0
2018-Feb-06 04:58N 16°07' E 108°13'0 0.0
2018-Feb-06 04:28N 16°07' E 108°13'0 0.0
2018-Feb-06 03:58N 16°07' E 108°13'0 0.0
2018-Feb-06 03:28N 16°07' E 108°13'0 0.0
2018-Feb-06 02:58N 16°07' E 108°13'0 0.0
2018-Feb-06 02:28N 16°07' E 108°13'0 0.0
2018-Feb-06 01:58N 16°07' E 108°13'0 0.0
2018-Feb-06 01:28N 16°07' E 108°13'0 0.1
2018-Feb-06 01:00N 16°07' E 108°13'3 5.7
2018-Feb-06 00:30N 16°10' E 108°13'  
Track history (hours):
 
Tides and Currents Weather Stations Pressure Air Temp Water Temp Dewpoint Dewpoint Depression Visibility Wind Speed Wind Dir Waves Ship Positions

Silver Shadow

Operator: V Ships Leisure SAM

Last reported at 2018-Feb-13 10:11 UTC. Time now 2018-Feb-18 18:33 UTC.
Position N 05°35' E 100°14'.

Length 186 m; draft 6.1 m.

Type: Passenger vessel. MMSI: 308628000.

Date/timePositionNaut miles runAvg speedWind from/ knotsBaromVisibWave heightAir tempDewpointWater temp
2018-Feb-13 10:11N 05°35' E 100°14'416.1
2018-Feb-13 09:58N 05°33' E 100°17'614.3
2018-Feb-13 09:30N 05°27' E 100°21'2 3.9
2018-Feb-13 08:55N 05°25' E 100°21'0 0.0
2018-Feb-13 08:25N 05°25' E 100°21'0 0.0
2018-Feb-13 07:49N 05°25' E 100°21'0 0.0
2018-Feb-13 04:19N 05°25' E 100°21'0 0.0
2018-Feb-13 03:49N 05°25' E 100°21'0 0.0
2018-Feb-13 03:23N 05°25' E 100°21'0 0.8
2018-Feb-13 02:59N 05°25' E 100°21'0 0.4
2018-Feb-13 02:30N 05°25' E 100°21'0 0.0
2018-Feb-13 01:56N 05°25' E 100°21'0 0.0
2018-Feb-13 01:20N 05°25' E 100°21'0 0.1
2018-Feb-13 00:56N 05°25' E 100°21'0 0.0
2018-Feb-13 00:26N 05°25' E 100°21'0 0.0
2018-Feb-12 23:56N 05°25' E 100°21'0 0.0
2018-Feb-12 23:20N 05°25' E 100°21'0 1.0
2018-Feb-12 23:00N 05°26' E 100°21'611.5
2018-Feb-12 22:30N 05°31' E 100°19'914.3
2018-Feb-12 21:54N 05°36' E 100°12'714.8
2018-Feb-12 21:26N 05°31' E 100°07'716.6
2018-Feb-12 21:00N 05°24' E 100°05'816.9
2018-Feb-12 20:30N 05°15' E 100°05'816.9
2018-Feb-12 20:00N 05°07' E 100°07'299 9.4
2018-Feb-11 12:19N 01°19' E 103°20'617.0
2018-Feb-11 11:57N 01°15' E 103°25'817.0
2018-Feb-11 11:30N 01°12' E 103°32'814.7
2018-Feb-11 10:58N 01°12' E 103°40'612.9
2018-Feb-11 10:29N 01°16' E 103°45'4 8.4
2018-Feb-11 09:59N 01°16' E 103°49'0 0.0
2018-Feb-11 09:29N 01°16' E 103°49'0 0.0
2018-Feb-11 08:59N 01°16' E 103°49'0 0.0
2018-Feb-11 08:29N 01°16' E 103°49'0 0.0
2018-Feb-11 07:59N 01°16' E 103°49'0 0.0
2018-Feb-11 07:29N 01°16' E 103°49'0 0.0
2018-Feb-11 06:59N 01°16' E 103°49'0 0.0
2018-Feb-11 06:29N 01°16' E 103°49'0 0.0
2018-Feb-11 05:59N 01°16' E 103°49'0 0.0
2018-Feb-11 05:29N 01°16' E 103°49'0 0.0
2018-Feb-11 04:53N 01°16' E 103°49'0 0.0
2018-Feb-11 04:29N 01°16' E 103°49'0 0.0
2018-Feb-11 03:59N 01°16' E 103°49'0 0.0
2018-Feb-11 03:29N 01°16' E 103°49'0 0.0
2018-Feb-11 02:59N 01°16' E 103°49'0 0.0
2018-Feb-11 02:29N 01°16' E 103°49'0 0.0
2018-Feb-11 01:59N 01°16' E 103°49'0 0.0
2018-Feb-11 01:29N 01°16' E 103°49'0 0.0
2018-Feb-11 00:59N 01°16' E 103°49'0 0.0
2018-Feb-11 00:29N 01°16' E 103°49'0 0.0
2018-Feb-10 23:59N 01°16' E 103°49'0 0.0
2018-Feb-10 23:30N 01°16' E 103°49'1 1.9
2018-Feb-10 23:00N 01°16' E 103°48'4 8.2
2018-Feb-10 22:30N 01°12' E 103°50'713.3
2018-Feb-10 22:00N 01°14' E 103°56'814.9
2018-Feb-10 21:27N 01°16' E 104°04'815.5
2018-Feb-10 20:58N 01°17' E 104°11'916.4
2018-Feb-10 20:26N 01°19' E 104°20'717.2
2018-Feb-10 20:00N 01°24' E 104°25'  
2018-Feb-06 15:41N 16°02' E 108°34'315.5
2018-Feb-06 15:29N 16°04' E 108°32'1514.7
2018-Feb-06 14:29N 16°11' E 108°18'7 6.8
2018-Feb-06 13:30N 16°07' E 108°13'0 0.0
2018-Feb-06 12:58N 16°07' E 108°13'0 0.0
2018-Feb-06 12:28N 16°07' E 108°13'0 0.0
2018-Feb-06 11:58N 16°07' E 108°13'0 0.0
2018-Feb-06 11:28N 16°07' E 108°13'0 0.0
2018-Feb-06 10:58N 16°07' E 108°13'0 0.0
2018-Feb-06 10:28N 16°07' E 108°13'0 0.0
2018-Feb-06 09:58N 16°07' E 108°13'0 0.0
2018-Feb-06 09:28N 16°07' E 108°13'0 0.0
2018-Feb-06 08:58N 16°07' E 108°13'0 0.0
2018-Feb-06 08:28N 16°07' E 108°13'0 0.0
2018-Feb-06 07:58N 16°07' E 108°13'0 0.0
2018-Feb-06 07:28N 16°07' E 108°13'0 0.0
2018-Feb-06 06:58N 16°07' E 108°13'0 0.0
2018-Feb-06 06:28N 16°07' E 108°13'0 0.0
2018-Feb-06 05:58N 16°07' E 108°13'0 0.0
2018-Feb-06 05:28N 16°07' E 108°13'0 0.0
2018-Feb-06 04:58N 16°07' E 108°13'0 0.0
2018-Feb-06 04:28N 16°07' E 108°13'0 0.0
2018-Feb-06 03:58N 16°07' E 108°13'0 0.0
2018-Feb-06 03:28N 16°07' E 108°13'0 0.0
2018-Feb-06 02:58N 16°07' E 108°13'0 0.0
2018-Feb-06 02:28N 16°07' E 108°13'0 0.0
2018-Feb-06 01:58N 16°07' E 108°13'0 0.0
2018-Feb-06 01:28N 16°07' E 108°13'0 0.1
2018-Feb-06 01:00N 16°07' E 108°13'3 5.7
2018-Feb-06 00:30N 16°10' E 108°13'  

Dump ship's entire track history